Time;durP1;ratioP1;P1;durP2;ratioP2;P2;SDS_P1;SDS_P2;PMS_P1;PMS_P2;Temp;Humidity;BMP_temperature;BMP_pressure;BME280_temperature;BME280_humidity;BME280_pressure;Samples;Min_cycle;Max_cycle;Signal;HPM_P1;HPM_P2
2024/04/19 18:12:16;;;;;;;5.30;2.10;;;8.00;99.90;;;;;;5489503;22;20275;-78
2024/04/19 18:14:42;;;;;;;7.57;2.30;;;8.00;99.90;;;;;;5238650;27;20248;-77
2024/04/19 18:17:07;;;;;;;11.43;2.37;;;8.00;99.90;;;;;;5196837;27;20913;-78
2024/04/19 18:19:33;;;;;;;6.93;1.73;;;8.00;99.90;;;;;;5176690;27;20577;-78
2024/04/19 18:22:00;;;;;;;5.67;2.17;;;8.00;99.90;;;;;;5177823;27;20291;-78
2024/04/19 18:24:30;;;;;;;5.57;1.80;;;8.00;99.90;;;;;;5169373;27;20364;-78
2024/04/19 18:26:55;;;;;;;6.90;2.00;;;8.00;99.90;;;;;;5220337;27;20364;-78
2024/04/19 18:29:24;;;;;;;4.50;1.73;;;7.90;99.90;;;;;;5199672;27;21416;-78
2024/04/19 18:31:50;;;;;;;4.07;1.87;;;7.90;99.90;;;;;;5222575;27;20444;-78
2024/04/19 18:34:17;;;;;;;8.13;1.70;;;7.80;99.90;;;;;;5188264;27;20249;-78
2024/04/19 18:36:45;;;;;;;3.83;1.30;;;7.80;99.90;;;;;;5219267;27;20339;-78
2024/04/19 18:39:11;;;;;;;4.83;1.50;;;7.70;99.90;;;;;;5225281;27;20248;-78
2024/04/19 18:41:38;;;;;;;6.17;1.33;;;7.70;99.90;;;;;;5212784;27;20292;-78
2024/04/19 18:44:04;;;;;;;5.83;1.40;;;7.80;99.90;;;;;;5170630;27;20254;-78
2024/04/19 18:46:30;;;;;;;5.53;1.50;;;7.70;99.90;;;;;;5198678;27;20292;-78
2024/04/19 18:48:57;;;;;;;4.37;1.10;;;7.70;99.90;;;;;;5177130;27;20719;-78
2024/04/19 18:51:23;;;;;;;4.50;1.40;;;7.80;99.90;;;;;;5185671;27;20248;-78
2024/04/19 18:53:48;;;;;;;1.80;1.13;;;7.80;99.90;;;;;;5196024;27;20291;-78
2024/04/19 18:56:14;;;;;;;3.80;1.20;;;7.80;99.90;;;;;;5210468;27;20244;-78
2024/04/19 18:58:40;;;;;;;3.73;1.13;;;7.70;99.90;;;;;;5159744;27;20613;-78
2024/04/19 19:01:09;;;;;;;5.07;1.10;;;7.70;99.90;;;;;;5168661;27;20261;-78
2024/04/19 19:03:35;;;;;;;5.93;1.13;;;7.60;99.90;;;;;;5181936;27;20612;-78
2024/04/19 19:06:01;;;;;;;3.10;1.07;;;7.60;99.90;;;;;;5168587;27;20248;-78
2024/04/19 19:08:26;;;;;;;4.20;1.03;;;7.60;99.90;;;;;;5174132;27;20308;-78
2024/04/19 19:10:52;;;;;;;1.80;0.90;;;7.60;99.90;;;;;;5212085;27;20643;-78
2024/04/19 19:13:18;;;;;;;2.37;0.90;;;7.50;99.90;;;;;;5153552;27;20250;-78
2024/04/19 19:15:57;;;;;;;2.70;0.90;;;7.50;99.90;;;;;;5156156;27;20285;-78
2024/04/19 19:18:26;;;;;;;2.80;0.70;;;7.50;99.90;;;;;;5191728;27;20264;-78
2024/04/19 19:20:52;;;;;;;1.90;0.90;;;7.50;99.90;;;;;;5189241;27;20245;-78
2024/04/19 19:23:18;;;;;;;1.97;0.80;;;7.50;99.90;;;;;;5167371;27;21317;-78
2024/04/19 19:25:44;;;;;;;3.17;0.97;;;7.50;99.90;;;;;;5190315;27;20253;-78
2024/04/19 19:28:12;;;;;;;1.53;0.97;;;7.50;99.90;;;;;;5159199;27;20253;-78
2024/04/19 19:30:42;;;;;;;2.10;1.07;;;7.50;99.90;;;;;;5194795;27;20785;-78
2024/04/19 19:33:08;;;;;;;5.23;2.60;;;7.50;99.90;;;;;;5176379;27;20534;-78
2024/04/19 19:35:37;;;;;;;3.10;1.10;;;7.40;99.90;;;;;;5189952;27;20342;-78
2024/04/19 19:38:03;;;;;;;2.57;0.97;;;7.40;99.90;;;;;;5196037;27;20291;-79
2024/04/19 19:40:29;;;;;;;1.37;0.90;;;7.40;99.90;;;;;;5184360;27;20317;-78
2024/04/19 19:42:55;;;;;;;1.70;1.17;;;7.40;99.90;;;;;;5173978;27;20346;-78
2024/04/19 19:45:20;;;;;;;1.97;1.10;;;7.40;99.90;;;;;;5205317;27;20261;-78
2024/04/19 19:47:46;;;;;;;3.03;1.10;;;7.40;99.90;;;;;;5190804;27;20253;-78
2024/04/19 19:50:12;;;;;;;2.53;1.10;;;7.30;99.90;;;;;;5191948;27;20275;-78
2024/04/19 19:55:22;;;;;;;2.00;1.10;;;7.30;99.90;;;;;;5814253;22;20260;-79
2024/04/19 19:57:52;;;;;;;6.97;1.20;;;7.30;99.90;;;;;;5203866;27;20604;-78
2024/04/19 20:05:48;;;;;;;3.33;1.30;;;7.30;99.90;;;;;;5201976;27;20607;-78
2024/04/19 20:08:14;;;;;;;2.70;1.10;;;7.30;99.90;;;;;;5193224;27;20240;-79
2024/04/19 20:10:41;;;;;;;2.27;0.80;;;7.30;99.90;;;;;;5193350;27;20249;-80
2024/04/19 20:13:07;;;;;;;1.47;1.10;;;7.20;99.90;;;;;;5194801;27;20725;-78
2024/04/19 20:15:33;;;;;;;3.10;1.20;;;7.10;99.90;;;;;;5195094;27;20713;-78
2024/04/19 20:18:00;;;;;;;2.33;1.10;;;7.10;99.90;;;;;;5213200;27;20299;-78
2024/04/19 20:20:25;;;;;;;2.77;1.20;;;7.10;99.90;;;;;;5184957;27;20765;-78
2024/04/19 20:22:54;;;;;;;1.73;1.43;;;7.10;99.90;;;;;;5193106;27;20292;-78
2024/04/19 20:25:23;;;;;;;1.40;1.30;;;7.10;99.90;;;;;;5215258;27;20253;-79
2024/04/19 20:27:49;;;;;;;1.20;1.10;;;7.10;99.90;;;;;;5176324;27;20245;-79
2024/04/19 20:30:15;;;;;;;2.60;1.53;;;7.10;99.90;;;;;;5198026;27;20824;-79
2024/04/19 20:32:40;;;;;;;2.20;0.97;;;7.10;99.90;;;;;;5193987;27;20599;-78
2024/04/19 20:35:18;;;;;;;2.37;0.80;;;6.90;99.90;;;;;;5204392;27;20263;-78
2024/04/19 20:37:44;;;;;;;1.53;0.80;;;6.90;99.90;;;;;;5223923;27;20249;-78
2024/04/19 20:40:10;;;;;;;0.87;0.60;;;6.80;99.90;;;;;;5211974;27;20311;-78
2024/04/19 20:42:35;;;;;;;2.53;0.80;;;6.70;99.90;;;;;;5193054;27;20355;-79
2024/04/19 20:45:01;;;;;;;1.20;0.50;;;6.60;99.90;;;;;;5236865;27;20275;-78
2024/04/19 20:47:31;;;;;;;0.60;0.60;;;6.70;99.90;;;;;;5191899;27;20570;-78
2024/04/19 20:49:57;;;;;;;0.40;0.40;;;6.70;99.90;;;;;;5197889;27;20244;-78
2024/04/19 20:52:23;;;;;;;0.57;0.50;;;6.60;99.90;;;;;;5198121;27;20248;-78
2024/04/19 20:54:49;;;;;;;1.17;0.53;;;6.60;99.90;;;;;;5227640;27;20332;-78
2024/04/19 20:57:14;;;;;;;1.03;0.57;;;6.60;99.90;;;;;;5230911;27;20246;-78
2024/04/19 20:59:40;;;;;;;0.70;0.40;;;6.60;99.90;;;;;;5235282;27;20291;-78
2024/04/19 21:02:06;;;;;;;2.20;0.50;;;6.50;99.90;;;;;;5211493;27;20267;-78
2024/04/19 21:04:34;;;;;;;0.90;0.40;;;6.50;99.90;;;;;;5214673;27;20295;-78
2024/04/19 21:07:00;;;;;;;0.47;0.43;;;6.50;99.90;;;;;;5238415;27;20338;-78
2024/04/19 21:09:25;;;;;;;0.70;0.40;;;6.30;99.90;;;;;;5226373;27;20244;-78
2024/04/19 21:11:51;;;;;;;0.40;0.40;;;6.30;99.90;;;;;;5204279;27;20252;-78
2024/04/19 21:14:16;;;;;;;0.50;0.50;;;6.20;99.90;;;;;;5230782;27;20339;-78
2024/04/19 21:16:42;;;;;;;0.40;0.40;;;6.20;99.90;;;;;;5198623;27;20731;-78
2024/04/19 21:19:08;;;;;;;0.30;0.30;;;6.10;99.90;;;;;;5198025;27;20248;-80
2024/04/19 21:21:33;;;;;;;0.50;0.40;;;6.00;99.90;;;;;;5213943;27;20731;-79
2024/04/19 21:24:01;;;;;;;0.23;0.23;;;6.00;99.90;;;;;;5200837;27;20261;-78
2024/04/19 21:26:27;;;;;;;0.37;0.30;;;6.00;99.90;;;;;;5197749;27;20271;-78
2024/04/19 21:28:54;;;;;;;1.03;0.40;;;5.90;99.90;;;;;;5211459;27;20329;-78
2024/04/19 21:31:19;;;;;;;0.30;0.30;;;5.90;99.90;;;;;;5188118;27;20272;-78
2024/04/19 21:33:45;;;;;;;0.30;0.30;;;6.00;99.90;;;;;;5232810;27;20252;-78
2024/04/19 21:36:11;;;;;;;0.60;0.33;;;5.90;99.90;;;;;;5228967;27;20245;-78
2024/04/19 21:38:37;;;;;;;0.77;0.20;;;5.80;99.90;;;;;;5224824;27;20282;-78
2024/04/19 21:41:04;;;;;;;0.30;0.30;;;5.80;99.90;;;;;;5196768;27;20768;-78
2024/04/19 21:43:31;;;;;;;0.63;0.33;;;5.90;99.90;;;;;;5208944;27;20256;-78
2024/04/19 21:46:00;;;;;;;0.50;0.40;;;5.90;99.90;;;;;;5197385;27;20623;-79
2024/04/19 21:48:25;;;;;;;0.40;0.40;;;5.90;99.90;;;;;;5194492;27;20315;-78
2024/04/19 21:50:51;;;;;;;0.40;0.40;;;5.80;99.90;;;;;;5209086;27;20244;-79
2024/04/19 21:53:17;;;;;;;0.47;0.47;;;5.80;99.90;;;;;;5210917;27;20351;-79
2024/04/19 21:55:45;;;;;;;0.40;0.37;;;5.80;99.90;;;;;;5208912;27;20643;-78
2024/04/19 21:58:11;;;;;;;0.60;0.40;;;5.80;99.90;;;;;;5225914;27;20615;-79
2024/04/19 22:00:37;;;;;;;0.70;0.50;;;5.80;99.90;;;;;;5181346;27;20287;-79
2024/04/19 22:03:03;;;;;;;0.50;0.40;;;5.80;99.90;;;;;;5194573;27;20696;-78
2024/04/19 22:05:28;;;;;;;0.57;0.47;;;5.80;99.90;;;;;;5225051;27;20244;-78
2024/04/19 22:07:54;;;;;;;0.63;0.60;;;5.80;99.90;;;;;;5194115;27;20301;-78
2024/04/19 22:10:20;;;;;;;2.20;0.70;;;5.80;99.90;;;;;;5193914;27;20260;-78
2024/04/19 22:12:46;;;;;;;1.10;0.67;;;5.80;99.90;;;;;;5217905;27;20284;-78
2024/04/19 22:15:12;;;;;;;1.73;0.60;;;5.90;99.90;;;;;;5196967;27;20724;-79
2024/04/19 22:17:37;;;;;;;0.70;0.70;;;5.80;99.90;;;;;;5200070;27;20257;-77
2024/04/19 22:20:04;;;;;;;0.60;0.60;;;5.80;99.90;;;;;;5203206;27;20241;-78
2024/04/19 22:22:33;;;;;;;0.70;0.70;;;5.80;99.90;;;;;;5209762;27;20344;-79
2024/04/19 22:24:58;;;;;;;1.07;0.70;;;5.80;99.90;;;;;;5208523;27;20252;-79
2024/04/19 22:27:24;;;;;;;2.87;0.80;;;5.90;99.90;;;;;;5223784;27;20276;-78
2024/04/19 22:29:54;;;;;;;0.80;0.80;;;5.90;99.90;;;;;;5192481;27;20352;-79
2024/04/19 22:32:20;;;;;;;0.70;0.70;;;5.90;99.90;;;;;;5206198;27;20288;-78
2024/04/19 22:34:50;;;;;;;1.30;0.90;;;5.80;99.90;;;;;;5203211;27;20246;-78
2024/04/19 22:37:16;;;;;;;1.67;0.90;;;5.90;99.90;;;;;;5205162;27;20341;-78
2024/04/19 22:39:42;;;;;;;0.90;0.80;;;5.80;99.90;;;;;;5203992;27;20297;-79
2024/04/19 22:42:09;;;;;;;1.50;0.83;;;5.90;99.90;;;;;;5202879;27;20246;-79
2024/04/19 22:44:34;;;;;;;2.33;0.90;;;5.90;99.90;;;;;;5183014;27;20245;-78
2024/04/19 22:47:00;;;;;;;0.70;0.70;;;5.90;99.90;;;;;;5189332;27;20292;-78
2024/04/19 22:49:26;;;;;;;1.20;0.77;;;5.90;99.90;;;;;;5216573;27;21117;-78
2024/04/19 22:51:54;;;;;;;1.13;0.80;;;5.80;99.90;;;;;;5223070;27;20895;-79
2024/04/19 22:54:21;;;;;;;0.80;0.80;;;5.90;99.90;;;;;;5207304;27;20291;-78
2024/04/19 22:56:47;;;;;;;1.30;0.90;;;5.90;99.90;;;;;;5189409;27;20592;-78
2024/04/19 22:59:12;;;;;;;0.93;0.80;;;5.90;99.90;;;;;;5202936;27;20249;-78
2024/04/19 23:01:38;;;;;;;1.97;0.80;;;5.90;99.90;;;;;;5217692;27;20834;-78
2024/04/19 23:04:04;;;;;;;3.03;1.10;;;5.90;99.90;;;;;;5207436;27;20236;-78
2024/04/19 23:06:51;;;;;;;1.40;1.20;;;5.90;99.90;;;;;;5237208;27;20335;-78
2024/04/19 23:09:17;;;;;;;4.23;1.20;;;5.90;99.90;;;;;;5218905;27;20342;-78
2024/04/19 23:11:42;;;;;;;1.83;1.20;;;5.90;99.90;;;;;;5232136;27;20244;-78
2024/04/19 23:14:08;;;;;;;1.37;1.00;;;5.90;99.90;;;;;;5226170;27;20232;-78
2024/04/19 23:16:34;;;;;;;3.17;1.60;;;5.90;99.90;;;;;;5189271;27;20260;-78
2024/04/19 23:19:01;;;;;;;2.90;1.20;;;5.80;99.90;;;;;;5188799;27;20569;-79
2024/04/19 23:21:27;;;;;;;1.83;1.30;;;5.90;99.90;;;;;;5204758;27;20233;-78
2024/04/19 23:23:53;;;;;;;3.90;1.63;;;5.80;99.90;;;;;;5202751;27;20317;-78
2024/04/19 23:26:18;;;;;;;3.63;1.70;;;5.80;99.90;;;;;;5204602;27;20851;-78
2024/04/19 23:28:44;;;;;;;3.10;1.57;;;5.80;99.90;;;;;;5188244;27;20240;-78
2024/04/19 23:31:10;;;;;;;2.20;1.47;;;5.90;99.90;;;;;;5195314;27;20275;-78
2024/04/19 23:33:36;;;;;;;5.13;1.63;;;5.90;99.90;;;;;;5195377;27;20253;-78
2024/04/19 23:36:02;;;;;;;1.50;1.37;;;5.90;99.90;;;;;;5207049;27;20240;-78
2024/04/19 23:38:28;;;;;;;1.50;1.17;;;5.90;99.90;;;;;;5203662;27;20732;-78
2024/04/19 23:40:54;;;;;;;2.50;1.30;;;5.90;99.90;;;;;;5217829;27;20245;-78
2024/04/19 23:44:16;;;;;;;2.17;1.10;;;5.80;99.90;;;;;;5207807;27;20947;-78
2024/04/19 23:46:42;;;;;;;1.93;1.17;;;5.80;99.90;;;;;;5202813;27;20249;-78
2024/04/19 23:49:08;;;;;;;3.30;1.50;;;5.70;99.90;;;;;;5188343;27;20245;-78
2024/04/19 23:51:34;;;;;;;1.30;1.13;;;5.80;99.90;;;;;;5216745;27;20255;-78
2024/04/19 23:54:03;;;;;;;1.73;1.20;;;5.70;99.90;;;;;;5207497;27;20295;-78
2024/04/19 23:56:29;;;;;;;1.50;1.20;;;5.80;99.90;;;;;;5207189;27;20292;-79
2024/04/19 23:58:55;;;;;;;1.53;1.20;;;5.70;99.90;;;;;;5204620;27;20420;-78
